Time;durP1;ratioP1;P1;durP2;ratioP2;P2;SDS_P1;SDS_P2;PMS_P1;PMS_P2;Temp;Humidity;BMP_temperature;BMP_pressure;BME280_temperature;BME280_humidity;BME280_pressure;Samples;Min_cycle;Max_cycle;Signal;HPM_P1;HPM_P2
2023/05/29 00:01:04;;;;;;;7.65;2.92;;;;;;;;;;5024516;28;20447;-77
2023/05/29 00:03:32;;;;;;;6.35;3.13;;;;;;;;;;5020867;28;20026;-76
2023/05/29 00:05:58;;;;;;;5.80;3.30;;;;;;;;;;5022835;28;20496;-77
2023/05/29 00:08:23;;;;;;;6.90;3.28;;;;;;;;;;5021505;28;20065;-76
2023/05/29 00:10:48;;;;;;;5.45;3.13;;;;;;;;;;5023692;28;20112;-76
2023/05/29 00:13:13;;;;;;;8.48;3.38;;;;;;;;;;5021469;28;20042;-76
2023/05/29 00:15:38;;;;;;;8.32;3.58;;;;;;;;;;5030413;28;20033;-77
2023/05/29 00:18:04;;;;;;;4.90;3.00;;;;;;;;;;5023497;28;20032;-77
2023/05/29 00:20:29;;;;;;;6.55;3.40;;;;;;;;;;5021406;28;20037;-77
2023/05/29 00:22:55;;;;;;;7.03;3.00;;;;;;;;;;5023473;28;20117;-76
2023/05/29 00:25:20;;;;;;;6.70;2.90;;;;;;;;;;5021947;28;20164;-76
2023/05/29 00:27:45;;;;;;;6.65;3.30;;;;;;;;;;5024510;28;20038;-76
2023/05/29 00:30:11;;;;;;;10.50;3.67;;;;;;;;;;5022864;28;20045;-76
2023/05/29 00:32:36;;;;;;;7.20;3.80;;;;;;;;;;5021582;28;20030;-77
2023/05/29 00:35:02;;;;;;;6.15;3.25;;;;;;;;;;4970827;28;1019490;-77
2023/05/29 00:37:28;;;;;;;6.85;3.67;;;;;;;;;;5026582;28;20404;-77
2023/05/29 00:39:53;;;;;;;5.13;3.03;;;;;;;;;;5025058;28;20042;-77
2023/05/29 00:42:18;;;;;;;6.40;3.25;;;;;;;;;;5023511;28;20026;-76
2023/05/29 00:44:43;;;;;;;6.78;2.95;;;;;;;;;;5024133;28;20030;-77
2023/05/29 00:47:09;;;;;;;5.05;2.83;;;;;;;;;;5022952;28;20042;-77
2023/05/29 00:49:35;;;;;;;6.40;3.10;;;;;;;;;;5022862;28;20082;-77
2023/05/29 00:52:01;;;;;;;6.85;3.00;;;;;;;;;;5005738;28;20438;-77
2023/05/29 00:54:28;;;;;;;7.65;3.60;;;;;;;;;;5022589;28;20022;-77
2023/05/29 00:56:54;;;;;;;4.68;3.00;;;;;;;;;;5023848;28;20605;-77
2023/05/29 00:59:21;;;;;;;4.80;3.15;;;;;;;;;;5007033;28;20045;-77
2023/05/29 01:01:47;;;;;;;5.80;3.35;;;;;;;;;;5004157;28;20033;-76
2023/05/29 01:04:12;;;;;;;6.13;3.40;;;;;;;;;;5006449;28;20041;-77
2023/05/29 01:06:39;;;;;;;5.40;2.67;;;;;;;;;;5003871;28;20037;-77
2023/05/29 01:09:04;;;;;;;5.18;2.97;;;;;;;;;;5024069;28;20033;-77
2023/05/29 01:11:48;;;;;;;5.82;3.08;;;;;;;;;;5021106;28;20129;-77
2023/05/29 01:14:25;;;;;;;8.05;3.25;;;;;;;;;;5020952;28;20038;-77
2023/05/29 01:16:55;;;;;;;7.40;3.40;;;;;;;;;;5024226;28;20021;-77
2023/05/29 01:19:24;;;;;;;5.38;3.25;;;;;;;;;;5007054;28;20040;-76
2023/05/29 01:22:11;;;;;;;6.35;3.70;;;;;;;;;;5023358;28;20500;-77
2023/05/29 01:24:48;;;;;;;5.97;3.40;;;;;;;;;;5007829;28;20045;-76
2023/05/29 01:27:16;;;;;;;10.73;3.83;;;;;;;;;;5024416;28;20052;-76
2023/05/29 01:29:43;;;;;;;5.95;3.42;;;;;;;;;;5006219;28;20029;-76
2023/05/29 01:32:08;;;;;;;12.32;3.45;;;;;;;;;;5024199;28;20045;-76
2023/05/29 01:34:34;;;;;;;5.78;3.38;;;;;;;;;;5021295;28;20038;-77
2023/05/29 01:36:59;;;;;;;6.65;3.70;;;;;;;;;;5013908;28;20037;-77
2023/05/29 01:39:25;;;;;;;6.18;3.67;;;;;;;;;;5006183;28;20037;-77
2023/05/29 01:41:51;;;;;;;5.93;3.50;;;;;;;;;;5013152;28;20382;-77
2023/05/29 01:44:16;;;;;;;7.20;3.50;;;;;;;;;;5021000;28;20075;-77
2023/05/29 01:46:42;;;;;;;6.78;3.63;;;;;;;;;;5023430;28;20399;-76
2023/05/29 01:49:08;;;;;;;7.47;3.40;;;;;;;;;;5002826;28;20029;-77
2023/05/29 01:51:35;;;;;;;6.43;3.67;;;;;;;;;;5023618;28;20033;-77
2023/05/29 01:54:00;;;;;;;8.32;3.08;;;;;;;;;;5002402;28;20040;-77
2023/05/29 01:56:27;;;;;;;10.30;3.83;;;;;;;;;;5023886;28;20104;-76
2023/05/29 01:58:56;;;;;;;5.65;3.50;;;;;;;;;;5021435;28;20146;-76
2023/05/29 02:01:22;;;;;;;6.07;3.53;;;;;;;;;;5005982;28;20035;-77
2023/05/29 02:03:47;;;;;;;5.32;3.17;;;;;;;;;;5022964;28;20032;-77
2023/05/29 02:06:12;;;;;;;5.43;3.15;;;;;;;;;;5005538;28;20045;-76
2023/05/29 02:08:37;;;;;;;7.28;3.53;;;;;;;;;;5022572;28;20037;-76
2023/05/29 02:11:02;;;;;;;6.03;2.85;;;;;;;;;;5020555;28;20037;-77
2023/05/29 02:13:28;;;;;;;6.93;3.72;;;;;;;;;;5004816;28;20038;-77
2023/05/29 02:15:53;;;;;;;5.82;3.22;;;;;;;;;;5002615;28;20048;-76
2023/05/29 02:18:18;;;;;;;5.38;3.20;;;;;;;;;;5003111;28;20044;-76
2023/05/29 02:20:44;;;;;;;6.63;3.80;;;;;;;;;;5004399;28;20025;-77
2023/05/29 02:23:10;;;;;;;6.65;3.42;;;;;;;;;;5004429;28;20033;-76
2023/05/29 02:25:35;;;;;;;5.32;3.00;;;;;;;;;;5023428;28;20067;-77
2023/05/29 02:28:01;;;;;;;6.43;3.63;;;;;;;;;;5023420;28;20503;-77
2023/05/29 02:30:26;;;;;;;7.45;3.58;;;;;;;;;;5020690;28;20029;-77
2023/05/29 02:32:51;;;;;;;6.80;3.25;;;;;;;;;;5003467;28;20037;-76
2023/05/29 02:35:17;;;;;;;6.70;3.92;;;;;;;;;;5003770;28;20048;-77
2023/05/29 02:37:43;;;;;;;6.60;3.22;;;;;;;;;;4987570;28;20029;-76
2023/05/29 02:40:08;;;;;;;6.13;3.22;;;;;;;;;;5011207;28;20040;-77
2023/05/29 02:42:37;;;;;;;5.57;3.15;;;;;;;;;;5004119;28;20045;-76
2023/05/29 02:45:03;;;;;;;8.93;3.85;;;;;;;;;;5022715;28;20671;-76
2023/05/29 02:47:28;;;;;;;8.80;3.47;;;;;;;;;;5026008;28;20030;-76
2023/05/29 02:49:55;;;;;;;7.20;3.20;;;;;;;;;;5025689;28;20472;-76
2023/05/29 02:52:23;;;;;;;5.22;3.10;;;;;;;;;;5019764;28;20061;-76
2023/05/29 02:54:48;;;;;;;5.30;3.20;;;;;;;;;;5006892;28;20433;-77
2023/05/29 02:57:13;;;;;;;5.45;3.17;;;;;;;;;;5023089;28;20384;-77
2023/05/29 02:59:39;;;;;;;6.63;3.22;;;;;;;;;;5005044;28;20076;-76
2023/05/29 03:02:04;;;;;;;7.30;3.10;;;;;;;;;;5022708;28;20037;-76
2023/05/29 03:04:29;;;;;;;7.35;3.53;;;;;;;;;;5021099;28;20030;-76
2023/05/29 03:06:55;;;;;;;8.50;3.17;;;;;;;;;;5013011;28;20057;-76
2023/05/29 03:09:20;;;;;;;6.75;3.58;;;;;;;;;;5009618;28;20041;-77
2023/05/29 03:11:47;;;;;;;6.45;3.13;;;;;;;;;;5013883;28;20034;-76
2023/05/29 03:14:13;;;;;;;9.18;3.10;;;;;;;;;;5020634;28;20042;-76
2023/05/29 03:16:38;;;;;;;11.68;4.10;;;;;;;;;;5022479;28;20071;-77
2023/05/29 03:19:04;;;;;;;6.63;3.22;;;;;;;;;;5005280;28;20030;-76
2023/05/29 03:21:31;;;;;;;6.50;3.30;;;;;;;;;;5004405;28;20037;-76
2023/05/29 03:23:57;;;;;;;8.85;3.50;;;;;;;;;;5002860;28;20018;-77
2023/05/29 03:26:22;;;;;;;5.25;3.30;;;;;;;;;;5004066;28;20497;-76
2023/05/29 03:28:48;;;;;;;7.35;3.72;;;;;;;;;;5002005;28;20192;-77
2023/05/29 03:31:13;;;;;;;5.43;3.08;;;;;;;;;;5005138;28;20230;-76
2023/05/29 03:33:39;;;;;;;7.32;3.50;;;;;;;;;;5021267;28;20522;-76
2023/05/29 03:36:17;;;;;;;5.13;3.33;;;;;;;;;;5004393;28;20099;-76
2023/05/29 03:38:43;;;;;;;5.68;3.08;;;;;;;;;;5001621;28;20058;-76
2023/05/29 03:41:08;;;;;;;4.93;3.33;;;;;;;;;;5006727;28;20036;-76
2023/05/29 03:43:34;;;;;;;6.28;3.42;;;;;;;;;;5007992;28;20057;-77
2023/05/29 03:45:59;;;;;;;6.20;3.15;;;;;;;;;;5006543;28;20029;-76
2023/05/29 03:48:27;;;;;;;5.93;3.47;;;;;;;;;;5004496;28;20033;-76
2023/05/29 03:50:52;;;;;;;6.15;3.58;;;;;;;;;;5025994;28;20033;-76
2023/05/29 03:53:24;;;;;;;5.38;3.10;;;;;;;;;;5015311;28;20040;-76
2023/05/29 03:55:49;;;;;;;6.60;3.08;;;;;;;;;;5023417;28;20038;-76
2023/05/29 03:58:15;;;;;;;5.75;2.85;;;;;;;;;;5011261;28;20033;-76
2023/05/29 04:00:41;;;;;;;5.75;3.05;;;;;;;;;;5014649;28;20038;-77
2023/05/29 04:03:07;;;;;;;5.20;3.25;;;;;;;;;;5008050;28;20561;-76
2023/05/29 04:05:32;;;;;;;6.63;3.08;;;;;;;;;;5006685;28;20120;-76
2023/05/29 04:07:58;;;;;;;6.50;3.42;;;;;;;;;;5007910;28;20025;-76
2023/05/29 04:10:24;;;;;;;6.22;3.53;;;;;;;;;;5005992;28;20026;-76
2023/05/29 04:12:50;;;;;;;6.70;3.65;;;;;;;;;;5029230;28;20056;-76
2023/05/29 04:15:15;;;;;;;8.48;3.35;;;;;;;;;;5005292;28;20476;-76
2023/05/29 04:17:40;;;;;;;6.55;3.80;;;;;;;;;;4998307;28;20124;-77
2023/05/29 04:20:08;;;;;;;6.00;3.33;;;;;;;;;;5005504;28;20026;-76
2023/05/29 04:22:35;;;;;;;6.68;3.05;;;;;;;;;;5012950;28;20518;-76
2023/05/29 04:25:00;;;;;;;8.93;2.97;;;;;;;;;;5024123;28;20095;-76
2023/05/29 04:27:26;;;;;;;6.18;3.28;;;;;;;;;;5010626;28;20452;-76
2023/05/29 04:29:53;;;;;;;5.13;3.13;;;;;;;;;;5006938;28;20026;-76
2023/05/29 04:32:19;;;;;;;7.13;3.13;;;;;;;;;;5023615;28;20057;-76
2023/05/29 04:34:44;;;;;;;6.00;3.33;;;;;;;;;;5007273;28;20080;-76
2023/05/29 04:37:13;;;;;;;6.65;3.10;;;;;;;;;;5007501;28;20083;-77
2023/05/29 04:39:39;;;;;;;8.90;3.97;;;;;;;;;;5010538;28;20034;-75
2023/05/29 04:42:05;;;;;;;9.68;3.50;;;;;;;;;;5007285;28;20040;-75
2023/05/29 04:44:30;;;;;;;8.10;3.35;;;;;;;;;;5003909;28;20022;-75
2023/05/29 04:46:56;;;;;;;7.45;3.33;;;;;;;;;;5007473;28;20033;-74
2023/05/29 04:49:22;;;;;;;5.80;3.00;;;;;;;;;;4990259;28;20041;-74
2023/05/29 04:51:47;;;;;;;9.20;3.53;;;;;;;;;;5003671;28;20022;-75
2023/05/29 04:54:12;;;;;;;7.97;3.20;;;;;;;;;;5023994;28;20033;-75
2023/05/29 04:56:43;;;;;;;6.43;3.63;;;;;;;;;;5004365;28;20590;-75
2023/05/29 04:59:11;;;;;;;5.88;3.20;;;;;;;;;;5007021;28;20033;-75
2023/05/29 05:01:36;;;;;;;6.05;3.05;;;;;;;;;;5013728;28;20041;-74
2023/05/29 05:04:02;;;;;;;7.00;3.72;;;;;;;;;;5006278;28;20025;-75
2023/05/29 05:06:28;;;;;;;7.13;3.33;;;;;;;;;;5009159;28;20064;-74
2023/05/29 05:08:54;;;;;;;8.38;4.28;;;;;;;;;;5004289;28;20403;-75
2023/05/29 05:11:20;;;;;;;5.65;3.10;;;;;;;;;;5005904;28;20022;-75
2023/05/29 05:13:46;;;;;;;6.43;3.20;;;;;;;;;;5006571;28;20030;-74
2023/05/29 05:16:11;;;;;;;8.50;3.40;;;;;;;;;;5003926;28;20041;-75
2023/05/29 05:18:38;;;;;;;7.20;3.35;;;;;;;;;;5005965;28;20583;-75
2023/05/29 05:21:06;;;;;;;7.00;3.50;;;;;;;;;;5003098;28;20121;-75
2023/05/29 05:23:33;;;;;;;6.60;3.08;;;;;;;;;;4990415;28;20068;-75
2023/05/29 05:25:58;;;;;;;5.80;3.33;;;;;;;;;;5006897;28;20049;-74
2023/05/29 05:28:24;;;;;;;7.65;3.50;;;;;;;;;;5006555;28;20017;-74
2023/05/29 05:30:51;;;;;;;6.32;3.25;;;;;;;;;;5002712;28;20022;-74
2023/05/29 05:33:16;;;;;;;7.47;3.30;;;;;;;;;;5005999;28;20026;-74
2023/05/29 05:35:42;;;;;;;8.00;4.05;;;;;;;;;;5003351;28;20057;-75
2023/05/29 05:38:07;;;;;;;4.93;3.05;;;;;;;;;;5001370;28;20030;-75
2023/05/29 05:40:33;;;;;;;7.18;3.15;;;;;;;;;;5006035;28;20535;-74
2023/05/29 05:43:06;;;;;;;7.13;3.35;;;;;;;;;;5004550;28;20491;-75
2023/05/29 05:45:51;;;;;;;9.43;4.00;;;;;;;;;;5007912;28;20100;-75
2023/05/29 05:48:16;;;;;;;8.15;3.70;;;;;;;;;;5003135;28;20029;-75
2023/05/29 05:50:42;;;;;;;7.40;3.38;;;;;;;;;;5013052;28;20071;-75
2023/05/29 05:53:07;;;;;;;5.45;2.95;;;;;;;;;;5011799;28;20030;-75
2023/05/29 05:55:32;;;;;;;6.65;3.13;;;;;;;;;;5007971;28;20040;-75
2023/05/29 05:57:58;;;;;;;7.10;3.65;;;;;;;;;;5010787;28;20028;-75
2023/05/29 06:00:23;;;;;;;6.95;3.40;;;;;;;;;;5012487;28;20087;-75
2023/05/29 06:02:53;;;;;;;7.85;3.60;;;;;;;;;;5003915;28;20188;-75
2023/05/29 06:05:30;;;;;;;6.70;3.20;;;;;;;;;;5002696;28;20041;-75
2023/05/29 06:07:55;;;;;;;9.27;3.25;;;;;;;;;;5005557;28;20044;-75
2023/05/29 06:10:21;;;;;;;6.43;3.00;;;;;;;;;;5005479;28;20125;-74
2023/05/29 06:12:47;;;;;;;7.03;3.50;;;;;;;;;;5002209;28;20037;-74
2023/05/29 06:15:20;;;;;;;6.95;3.33;;;;;;;;;;5009224;28;20029;-75
2023/05/29 06:17:45;;;;;;;7.03;3.65;;;;;;;;;;5004732;28;20030;-74
2023/05/29 06:20:11;;;;;;;7.63;3.35;;;;;;;;;;5005518;28;20028;-75
2023/05/29 06:22:37;;;;;;;6.43;2.85;;;;;;;;;;5003036;28;20400;-75
2023/05/29 06:25:02;;;;;;;6.90;3.33;;;;;;;;;;5007858;28;20029;-75
2023/05/29 06:27:27;;;;;;;5.75;3.20;;;;;;;;;;5006119;28;20403;-74
2023/05/29 06:29:53;;;;;;;5.20;3.20;;;;;;;;;;5023225;28;20480;-75
2023/05/29 06:32:19;;;;;;;6.78;3.40;;;;;;;;;;5004817;28;20041;-75
2023/05/29 06:34:44;;;;;;;8.05;3.78;;;;;;;;;;5003236;28;20026;-75
2023/05/29 06:37:09;;;;;;;7.75;3.22;;;;;;;;;;5003832;28;20137;-75
2023/05/29 06:39:35;;;;;;;5.63;3.10;;;;;;;;;;5005393;28;20053;-75
2023/05/29 06:42:01;;;;;;;6.03;3.13;;;;;;;;;;5004530;28;20076;-75
2023/05/29 06:44:26;;;;;;;7.50;3.92;;;;;;;;;;5005727;28;20079;-75
2023/05/29 06:46:53;;;;;;;8.35;4.18;;;;;;;;;;5000637;28;20076;-75
2023/05/29 06:49:18;;;;;;;7.10;3.33;;;;;;;;;;5021419;28;20497;-75
2023/05/29 06:51:44;;;;;;;8.27;3.33;;;;;;;;;;5005408;28;20033;-75
2023/05/29 06:54:22;;;;;;;7.90;3.35;;;;;;;;;;5003336;28;20076;-75
2023/05/29 06:56:48;;;;;;;7.32;2.97;;;;;;;;;;5005365;28;20034;-75
2023/05/29 06:59:13;;;;;;;6.53;3.15;;;;;;;;;;5004633;28;20037;-76
2023/05/29 07:01:39;;;;;;;8.45;2.90;;;;;;;;;;5002048;28;20345;-75
2023/05/29 07:04:04;;;;;;;9.82;3.63;;;;;;;;;;5005271;28;20022;-74
2023/05/29 07:06:30;;;;;;;7.07;3.28;;;;;;;;;;5005282;28;20113;-73
2023/05/29 07:08:57;;;;;;;8.57;3.35;;;;;;;;;;5003996;28;20519;-75
2023/05/29 07:11:22;;;;;;;9.20;3.45;;;;;;;;;;5002489;28;20113;-75
2023/05/29 07:13:48;;;;;;;5.55;3.50;;;;;;;;;;5003828;28;20025;-75
2023/05/29 07:16:14;;;;;;;6.32;3.50;;;;;;;;;;5009042;28;20022;-75
2023/05/29 07:18:40;;;;;;;8.13;2.90;;;;;;;;;;5006767;28;20457;-73
2023/05/29 07:21:06;;;;;;;7.88;2.78;;;;;;;;;;5007204;28;20117;-75
2023/05/29 07:23:31;;;;;;;5.63;2.70;;;;;;;;;;5008660;28;20029;-75
2023/05/29 07:25:57;;;;;;;7.43;3.13;;;;;;;;;;5010923;28;20207;-75
2023/05/29 07:28:24;;;;;;;6.20;2.95;;;;;;;;;;5008987;28;20026;-75
2023/05/29 07:30:51;;;;;;;6.03;2.60;;;;;;;;;;5007357;28;20385;-75
2023/05/29 07:33:17;;;;;;;7.32;3.30;;;;;;;;;;5008258;28;20045;-75
2023/05/29 07:35:43;;;;;;;6.78;3.10;;;;;;;;;;5016397;28;20037;-75
2023/05/29 07:38:09;;;;;;;6.97;3.25;;;;;;;;;;5009109;28;20033;-74
2023/05/29 07:40:36;;;;;;;6.25;2.78;;;;;;;;;;5005228;28;20140;-75
2023/05/29 07:43:40;;;;;;;8.35;3.00;;;;;;;;;;5016279;28;20126;-75
2023/05/29 07:46:07;;;;;;;7.43;3.22;;;;;;;;;;5007334;28;20026;-75
2023/05/29 07:48:35;;;;;;;6.38;2.58;;;;;;;;;;5007002;28;20565;-75
2023/05/29 07:51:01;;;;;;;8.35;2.75;;;;;;;;;;5008404;28;20705;-75
2023/05/29 07:53:31;;;;;;;6.03;2.70;;;;;;;;;;5015291;28;20030;-75
2023/05/29 07:55:57;;;;;;;7.18;2.90;;;;;;;;;;5008414;28;20432;-75
2023/05/29 07:58:23;;;;;;;11.27;3.22;;;;;;;;;;5005993;28;20033;-75
2023/05/29 08:00:49;;;;;;;5.55;2.83;;;;;;;;;;5006971;28;20025;-75
2023/05/29 08:03:14;;;;;;;5.97;2.60;;;;;;;;;;5008248;28;20033;-75
2023/05/29 08:05:58;;;;;;;5.53;2.40;;;;;;;;;;5023648;28;20049;-75
2023/05/29 08:08:25;;;;;;;6.40;2.63;;;;;;;;;;5006282;28;20053;-75
2023/05/29 08:10:50;;;;;;;5.15;2.30;;;;;;;;;;5007897;28;20502;-75
2023/05/29 08:13:15;;;;;;;6.88;2.90;;;;;;;;;;5006966;28;20038;-75
2023/05/29 08:15:43;;;;;;;8.10;2.97;;;;;;;;;;4990486;28;20026;-75
2023/05/29 08:18:08;;;;;;;5.85;2.72;;;;;;;;;;5014946;28;20046;-75
2023/05/29 08:20:34;;;;;;;6.13;2.42;;;;;;;;;;5023120;28;20040;-75
2023/05/29 08:23:00;;;;;;;5.38;2.40;;;;;;;;;;5024264;28;20117;-76
2023/05/29 08:25:25;;;;;;;7.95;2.55;;;;;;;;;;5028763;28;20124;-75
2023/05/29 08:27:50;;;;;;;5.85;2.40;;;;;;;;;;5001498;28;20156;-75
2023/05/29 08:30:16;;;;;;;7.53;3.17;;;;;;;;;;5024134;28;20079;-76
2023/05/29 08:32:41;;;;;;;7.38;2.42;;;;;;;;;;5022716;28;20076;-75
2023/05/29 08:35:06;;;;;;;7.82;3.25;;;;;;;;;;5026355;28;20037;-75
2023/05/29 08:37:31;;;;;;;4.18;2.28;;;;;;;;;;5022378;28;20088;-75
2023/05/29 08:39:57;;;;;;;6.83;2.83;;;;;;;;;;5026329;28;20029;-76
2023/05/29 08:42:27;;;;;;;4.68;2.20;;;;;;;;;;5022107;28;20343;-76
2023/05/29 08:44:55;;;;;;;8.05;3.53;;;;;;;;;;5021284;28;20156;-75
2023/05/29 08:47:22;;;;;;;7.95;2.78;;;;;;;;;;5025167;28;20025;-75
2023/05/29 08:49:51;;;;;;;6.72;2.95;;;;;;;;;;5024883;28;20052;-75
2023/05/29 08:52:18;;;;;;;9.60;2.47;;;;;;;;;;5023905;28;20037;-75
2023/05/29 08:54:44;;;;;;;8.35;2.85;;;;;;;;;;5022548;28;20095;-76
2023/05/29 08:57:10;;;;;;;7.53;2.78;;;;;;;;;;5024813;28;20029;-76
2023/05/29 08:59:36;;;;;;;5.18;2.45;;;;;;;;;;5024683;28;20045;-75
2023/05/29 09:02:01;;;;;;;6.50;2.50;;;;;;;;;;5022837;28;20029;-76
2023/05/29 09:04:30;;;;;;;8.73;2.83;;;;;;;;;;5005300;28;20057;-75
2023/05/29 09:06:55;;;;;;;5.40;2.47;;;;;;;;;;5022253;28;20144;-75
2023/05/29 09:09:23;;;;;;;8.63;2.78;;;;;;;;;;5023684;28;20516;-76
2023/05/29 09:11:48;;;;;;;7.03;2.50;;;;;;;;;;5021757;28;20473;-76
2023/05/29 09:14:33;;;;;;;8.85;2.58;;;;;;;;;;5021672;28;20041;-75
2023/05/29 09:16:58;;;;;;;6.35;2.58;;;;;;;;;;5022587;28;20092;-76
2023/05/29 09:19:25;;;;;;;5.70;2.42;;;;;;;;;;5024380;28;20041;-75
2023/05/29 09:21:50;;;;;;;6.20;2.85;;;;;;;;;;5004753;28;20060;-76
2023/05/29 09:24:15;;;;;;;5.45;2.92;;;;;;;;;;5022496;28;20134;-75
2023/05/29 09:26:48;;;;;;;6.70;2.30;;;;;;;;;;5023234;28;20029;-76
2023/05/29 09:29:13;;;;;;;9.70;2.55;;;;;;;;;;5024229;28;20295;-76
2023/05/29 09:31:45;;;;;;;5.20;2.20;;;;;;;;;;5025080;28;20040;-76
2023/05/29 09:34:10;;;;;;;5.32;2.20;;;;;;;;;;5020661;28;20448;-76
2023/05/29 09:36:36;;;;;;;5.40;2.37;;;;;;;;;;5006284;28;20061;-75
2023/05/29 09:39:03;;;;;;;5.93;2.78;;;;;;;;;;5020275;28;20312;-75
2023/05/29 09:41:28;;;;;;;5.32;2.50;;;;;;;;;;5023389;28;20068;-76
2023/05/29 09:43:54;;;;;;;5.10;2.23;;;;;;;;;;5023281;28;20430;-75
2023/05/29 09:46:20;;;;;;;6.90;2.20;;;;;;;;;;5021131;28;20794;-76
2023/05/29 09:48:46;;;;;;;5.97;2.85;;;;;;;;;;5022911;28;20116;-76
2023/05/29 09:51:23;;;;;;;5.78;2.05;;;;;;;;;;5022602;28;20026;-76
2023/05/29 09:53:50;;;;;;;5.82;2.50;;;;;;;;;;5023853;28;20041;-76
2023/05/29 09:56:17;;;;;;;5.40;2.25;;;;;;;;;;5006232;28;20041;-76
2023/05/29 09:58:45;;;;;;;6.90;2.50;;;;;;;;;;5023742;28;20030;-75
2023/05/29 10:01:17;;;;;;;4.88;2.10;;;;;;;;;;5007168;28;20036;-76
2023/05/29 10:03:42;;;;;;;;;;;;;;;;;;5005573;28;20037;-76
2023/05/29 10:06:11;;;;;;;6.15;2.75;;;;;;;;;;5023255;28;19909;-75
2023/05/29 10:08:37;;;;;;;6.53;2.45;;;;;;;;;;5004560;28;20045;-75
2023/05/29 10:11:04;;;;;;;4.95;2.08;;;;;;;;;;5003778;28;20036;-76
2023/05/29 10:13:36;;;;;;;7.20;2.75;;;;;;;;;;5005941;28;20104;-76
2023/05/29 10:16:01;;;;;;;;;;;;;;;;;;5005862;28;20037;-75
2023/05/29 10:18:31;;;;;;;4.87;2.07;;;;;;;;;;5020409;28;19917;-75
2023/05/29 10:20:58;;;;;;;5.03;2.22;;;;;;;;;;5023109;28;20268;-75
2023/05/29 10:23:25;;;;;;;5.90;2.25;;;;;;;;;;5019579;28;20431;-76
2023/05/29 10:25:53;;;;;;;5.95;2.20;;;;;;;;;;5005781;28;20069;-76
2023/05/29 10:28:18;;;;;;;4.97;2.40;;;;;;;;;;5024147;28;20681;-76
2023/05/29 10:30:46;;;;;;;6.03;2.17;;;;;;;;;;5003015;28;20042;-76
2023/05/29 10:33:15;;;;;;;5.25;2.22;;;;;;;;;;5021914;28;20033;-76
2023/05/29 10:35:45;;;;;;;8.00;2.53;;;;;;;;;;5021189;28;20408;-76
2023/05/29 10:38:16;;;;;;;5.47;2.38;;;;;;;;;;5023274;28;20066;-76
2023/05/29 10:40:42;;;;;;;5.72;2.50;;;;;;;;;;5002188;28;20045;-76
2023/05/29 10:43:10;;;;;;;5.90;2.30;;;;;;;;;;5022663;28;20411;-76
2023/05/29 10:45:35;;;;;;;5.88;2.20;;;;;;;;;;5021355;28;20638;-77
2023/05/29 10:48:06;;;;;;;4.03;1.87;;;;;;;;;;5024131;28;20159;-78
2023/05/29 10:50:40;;;;;;;5.10;2.45;;;;;;;;;;5006053;28;20273;-77
2023/05/29 10:53:11;;;;;;;9.13;2.28;;;;;;;;;;5021297;28;20038;-77
2023/05/29 10:55:37;;;;;;;6.07;2.67;;;;;;;;;;5020238;28;20040;-77
2023/05/29 10:58:10;;;;;;;5.50;2.55;;;;;;;;;;5025287;28;20026;-78
2023/05/29 11:00:41;;;;;;;5.50;2.30;;;;;;;;;;5006307;28;20109;-77
2023/05/29 11:03:07;;;;;;;5.55;2.20;;;;;;;;;;4988029;28;20041;-77
2023/05/29 11:05:32;;;;;;;5.47;3.03;;;;;;;;;;5027175;28;20048;-77
2023/05/29 11:08:03;;;;;;;7.30;2.50;;;;;;;;;;5021728;28;20064;-77
2023/05/29 11:10:41;;;;;;;8.27;2.47;;;;;;;;;;5023890;28;20303;-77
2023/05/29 11:13:07;;;;;;;4.78;2.30;;;;;;;;;;5001680;28;20440;-77
2023/05/29 11:15:32;;;;;;;4.47;2.00;;;;;;;;;;5021770;28;20041;-77
2023/05/29 11:18:05;;;;;;;7.00;2.10;;;;;;;;;;5019279;28;20095;-77
2023/05/29 11:20:36;;;;;;;5.38;2.50;;;;;;;;;;5004031;28;20033;-77
2023/05/29 11:23:02;;;;;;;5.53;2.45;;;;;;;;;;5022880;28;20654;-77
2023/05/29 11:25:28;;;;;;;6.80;3.13;;;;;;;;;;5022847;28;20353;-78
2023/05/29 11:27:53;;;;;;;5.10;2.63;;;;;;;;;;5022834;28;20030;-78
2023/05/29 11:30:19;;;;;;;5.32;2.10;;;;;;;;;;5020099;28;20041;-77
2023/05/29 11:32:46;;;;;;;4.72;2.33;;;;;;;;;;5021554;28;20122;-77
2023/05/29 11:35:12;;;;;;;5.95;2.72;;;;;;;;;;5022690;28;20045;-78
2023/05/29 11:37:38;;;;;;;4.68;2.67;;;;;;;;;;5002122;28;20030;-77
2023/05/29 11:40:05;;;;;;;5.10;2.38;;;;;;;;;;5022515;28;20034;-78
2023/05/29 11:42:31;;;;;;;4.20;2.20;;;;;;;;;;5026029;28;20053;-77
2023/05/29 11:45:08;;;;;;;4.40;2.47;;;;;;;;;;5016033;28;20030;-78
2023/05/29 11:47:49;;;;;;;4.93;2.83;;;;;;;;;;5020228;28;20048;-78
2023/05/29 11:50:18;;;;;;;7.13;2.50;;;;;;;;;;5018797;28;20061;-78
2023/05/29 11:52:47;;;;;;;5.20;2.40;;;;;;;;;;5018951;28;20173;-78
2023/05/29 11:55:12;;;;;;;5.43;3.13;;;;;;;;;;5024513;28;20549;-77
2023/05/29 11:57:37;;;;;;;4.47;2.20;;;;;;;;;;5025750;28;20053;-77
2023/05/29 12:00:09;;;;;;;4.93;2.65;;;;;;;;;;5001628;28;20026;-78
2023/05/29 12:02:37;;;;;;;3.85;2.42;;;;;;;;;;5023096;28;20037;-79
2023/05/29 12:05:04;;;;;;;4.60;2.45;;;;;;;;;;5024297;28;20041;-78
2023/05/29 12:07:29;;;;;;;5.60;2.70;;;;;;;;;;5023511;28;20070;-78
2023/05/29 12:09:57;;;;;;;4.95;2.65;;;;;;;;;;5028993;28;20153;-77
2023/05/29 12:12:23;;;;;;;5.75;2.92;;;;;;;;;;5025811;28;20427;-79
2023/05/29 12:14:52;;;;;;;4.78;2.42;;;;;;;;;;5018944;28;20061;-78
2023/05/29 12:17:18;;;;;;;5.40;2.10;;;;;;;;;;5025497;28;20033;-78
2023/05/29 12:19:43;;;;;;;5.13;2.13;;;;;;;;;;5023588;28;20040;-78
2023/05/29 12:22:08;;;;;;;5.00;2.22;;;;;;;;;;5025834;28;20133;-78
2023/05/29 12:24:34;;;;;;;9.20;2.53;;;;;;;;;;5021754;28;20464;-78
2023/05/29 12:27:03;;;;;;;5.75;2.40;;;;;;;;;;5025666;28;20051;-78
2023/05/29 12:29:38;;;;;;;5.50;2.60;;;;;;;;;;5024643;28;20087;-77
2023/05/29 12:32:03;;;;;;;5.65;2.20;;;;;;;;;;5026843;28;20041;-77
2023/05/29 12:34:34;;;;;;;4.60;2.28;;;;;;;;;;5005949;28;20141;-77
2023/05/29 12:37:09;;;;;;;4.20;2.80;;;;;;;;;;5022633;28;20034;-78
2023/05/29 12:39:35;;;;;;;4.18;2.30;;;;;;;;;;5021725;28;20025;-78
2023/05/29 12:42:00;;;;;;;5.38;3.17;;;;;;;;;;5007228;28;20385;-77
2023/05/29 12:44:25;;;;;;;5.27;2.67;;;;;;;;;;5027062;28;20037;-79
2023/05/29 12:46:55;;;;;;;4.83;2.23;;;;;;;;;;5021304;28;20276;-78
2023/05/29 12:49:23;;;;;;;5.03;2.55;;;;;;;;;;4989979;28;20717;-78
2023/05/29 12:51:48;;;;;;;4.60;2.30;;;;;;;;;;5023406;28;20033;-78
2023/05/29 12:54:14;;;;;;;8.20;3.13;;;;;;;;;;5025111;28;20506;-78
2023/05/29 12:56:40;;;;;;;5.03;2.72;;;;;;;;;;5005607;28;20580;-77
2023/05/29 12:59:08;;;;;;;6.22;3.20;;;;;;;;;;5024910;28;20050;-78
2023/05/29 13:01:33;;;;;;;5.00;2.70;;;;;;;;;;5022658;28;20112;-78
2023/05/29 13:03:58;;;;;;;4.38;2.30;;;;;;;;;;5023637;28;20527;-78
2023/05/29 13:06:23;;;;;;;5.70;2.77;;;;;;;;;;5025905;28;20037;-78
2023/05/29 13:08:49;;;;;;;6.60;3.13;;;;;;;;;;5023304;28;20379;-78
2023/05/29 13:11:14;;;;;;;6.63;2.65;;;;;;;;;;5025795;28;20280;-78
2023/05/29 13:13:39;;;;;;;5.38;2.63;;;;;;;;;;5021341;28;20044;-77
2023/05/29 13:16:05;;;;;;;5.03;2.50;;;;;;;;;;5024582;28;20108;-78
2023/05/29 13:18:30;;;;;;;4.35;2.20;;;;;;;;;;5021782;28;20351;-78
2023/05/29 13:20:56;;;;;;;5.03;2.47;;;;;;;;;;5023542;28;20645;-77
2023/05/29 13:23:21;;;;;;;5.60;2.30;;;;;;;;;;5022912;28;20030;-78
2023/05/29 13:25:49;;;;;;;4.97;2.72;;;;;;;;;;5006115;28;20025;-78
2023/05/29 13:28:14;;;;;;;5.03;2.65;;;;;;;;;;5024489;28;20037;-78
2023/05/29 13:30:39;;;;;;;5.53;3.03;;;;;;;;;;5020739;28;20041;-78
2023/05/29 13:33:05;;;;;;;4.97;2.70;;;;;;;;;;5027636;28;20480;-78
2023/05/29 13:35:30;;;;;;;4.77;2.70;;;;;;;;;;5020682;28;20763;-78
2023/05/29 13:37:55;;;;;;;4.43;3.07;;;;;;;;;;5024319;28;20030;-78
2023/05/29 13:40:20;;;;;;;5.93;3.00;;;;;;;;;;5023937;28;20277;-78
2023/05/29 13:42:45;;;;;;;5.53;2.63;;;;;;;;;;5024155;28;20029;-78
2023/05/29 13:45:12;;;;;;;4.95;3.08;;;;;;;;;;5018744;28;20069;-78
2023/05/29 13:47:37;;;;;;;4.20;2.72;;;;;;;;;;5020355;28;20041;-78
2023/05/29 13:50:03;;;;;;;5.40;2.92;;;;;;;;;;5025302;28;20033;-78
2023/05/29 13:52:28;;;;;;;5.40;2.53;;;;;;;;;;5020668;28;20030;-78
2023/05/29 13:54:53;;;;;;;4.82;2.42;;;;;;;;;;5009800;28;20037;-79
2023/05/29 13:57:18;;;;;;;6.03;2.30;;;;;;;;;;5024193;28;20030;-78
2023/05/29 13:59:44;;;;;;;5.95;2.42;;;;;;;;;;5026492;28;20036;-77
2023/05/29 14:02:09;;;;;;;4.03;2.20;;;;;;;;;;5024178;28;20447;-78
2023/05/29 14:04:34;;;;;;;4.05;2.35;;;;;;;;;;5023138;28;20037;-77
2023/05/29 14:06:59;;;;;;;5.40;2.20;;;;;;;;;;5020569;28;20168;-77
2023/05/29 14:09:27;;;;;;;4.33;2.40;;;;;;;;;;5022826;28;20033;-78
2023/05/29 14:11:54;;;;;;;8.63;2.70;;;;;;;;;;5023596;28;20279;-77
2023/05/29 14:14:19;;;;;;;4.40;2.30;;;;;;;;;;5022976;28;20026;-79
2023/05/29 14:16:44;;;;;;;3.97;2.07;;;;;;;;;;5004677;28;20488;-78
2023/05/29 14:19:09;;;;;;;4.43;2.17;;;;;;;;;;5020983;28;20272;-78
2023/05/29 14:21:35;;;;;;;5.73;2.30;;;;;;;;;;5022104;28;20274;-77
2023/05/29 14:24:01;;;;;;;4.90;2.45;;;;;;;;;;5023308;28;20263;-78
2023/05/29 14:26:26;;;;;;;4.82;2.30;;;;;;;;;;5020417;28;20040;-78
2023/05/29 14:28:51;;;;;;;5.17;3.20;;;;;;;;;;5023207;28;20099;-78
2023/05/29 14:31:16;;;;;;;5.33;3.30;;;;;;;;;;5027180;28;20276;-77
2023/05/29 14:33:41;;;;;;;7.40;3.60;;;;;;;;;;5021415;28;20334;-77
2023/05/29 14:36:07;;;;;;;5.53;2.80;;;;;;;;;;5021596;28;20273;-78
2023/05/29 14:38:32;;;;;;;7.68;3.70;;;;;;;;;;5021312;28;20025;-78
2023/05/29 14:40:57;;;;;;;7.53;3.80;;;;;;;;;;5021236;28;20037;-77